Time;durP1;ratioP1;P1;durP2;ratioP2;P2;SDS_P1;SDS_P2;PMS_P1;PMS_P2;Temp;Humidity;BMP_temperature;BMP_pressure;BME280_temperature;BME280_humidity;BME280_pressure;Samples;Min_cycle;Max_cycle;Signal;HPM_P1;HPM_P2
2022/05/14 00:00:26;;;;;;;;;3.33;1.00;;;;;19.52;39.58;101919.50;5065348;28;45556;-88
2022/05/14 00:02:52;;;;;;;;;1.00;1.00;;;;;19.34;40.21;101891.78;5060164;28;45470;-87
2022/05/14 00:05:19;;;;;;;;;2.67;2.00;;;;;19.57;40.01;101934.50;5052004;28;45453;-88
2022/05/14 00:07:46;;;;;;;;;1.00;1.00;;;;;19.55;40.06;101932.81;5041294;28;46420;-88
2022/05/14 00:10:11;;;;;;;;;0.00;0.00;;;;;19.26;39.74;101883.28;5060042;28;45573;-87
2022/05/14 00:15:21;;;;;;;;;1.00;1.00;;;;;19.27;40.27;101902.13;5073143;28;45382;-88
2022/05/14 00:17:47;;;;;;;;;1.00;1.00;;;;;18.78;40.31;101824.06;5069821;28;45587;-88
2022/05/14 00:20:12;;;;;;;;;1.33;1.33;;;;;19.46;40.54;101937.00;5070219;28;45502;-88
2022/05/14 00:22:38;;;;;;;;;1.33;1.00;;;;;19.18;40.36;101898.13;5042159;28;45656;-88
2022/05/14 00:25:04;;;;;;;;;2.00;2.00;;;;;19.10;40.44;101889.63;5057601;28;46015;-88
2022/05/14 00:27:33;;;;;;;;;3.00;3.00;;;;;19.15;40.54;101892.03;5039421;28;45812;-88
2022/05/14 00:29:58;;;;;;;;;2.67;1.67;;;;;19.16;40.10;101901.91;5041160;28;45532;-88
2022/05/14 00:32:24;;;;;;;;;1.67;1.00;;;;;19.33;40.71;101926.03;5056056;28;45415;-88
2022/05/14 00:34:49;;;;;;;;;1.00;1.00;;;;;19.14;40.76;101895.72;5060474;28;45440;-88
2022/05/14 00:37:14;;;;;;;;;1.00;1.00;;;;;19.00;40.50;101880.34;5063252;28;45445;-89
2022/05/14 00:39:40;;;;;;;;;0.67;0.67;;;;;19.01;40.79;101882.09;5041921;28;45402;-88
2022/05/14 00:42:05;;;;;;;;;3.00;1.00;;;;;18.91;40.67;101879.06;5044794;27;45539;-89
2022/05/14 00:44:30;;;;;;;;;0.67;0.67;;;;;18.80;40.92;101848.25;5040475;28;48151;-88
2022/05/14 00:47:03;;;;;;;;;0.33;0.33;;;;;19.17;41.13;101927.94;5045474;28;48959;-85
2022/05/14 00:49:31;;;;;;;;;0.00;0.00;;;;;19.13;41.07;101926.44;5038237;28;45305;-85
2022/05/14 00:51:59;;;;;;;;;1.00;1.00;;;;;19.10;41.26;101927.44;5044374;28;45357;-85
2022/05/14 00:54:34;;;;;;;;;3.00;2.00;;;;;19.04;41.17;101922.44;5042485;28;45549;-85
2022/05/14 00:57:05;;;;;;;;;1.00;1.00;;;;;19.01;41.30;101921.75;5040506;28;45447;-86
2022/05/14 00:59:30;;;;;;;;;1.33;1.00;;;;;18.96;41.33;101919.31;5044901;28;45329;-85
2022/05/14 01:01:58;;;;;;;;;4.00;0.33;;;;;18.85;41.79;101911.88;5036022;28;45395;-85
2022/05/14 01:04:24;;;;;;;;;1.33;1.00;;;;;18.84;41.59;101906.56;5031274;28;47330;-85
2022/05/14 01:06:56;;;;;;;;;1.67;1.67;;;;;18.83;41.83;101921.91;5041445;28;45404;-85
2022/05/14 01:09:22;;;;;;;;;2.00;2.00;;;;;18.52;41.81;101874.22;5046332;28;45571;-85
2022/05/14 01:11:50;;;;;;;;;3.00;1.00;;;;;18.66;42.01;101906.66;5036151;28;45351;-85
2022/05/14 01:14:16;;;;;;;;;3.00;3.00;;;;;18.44;42.30;101881.88;5039593;28;46648;-85
2022/05/14 01:16:41;;;;;;;;;2.33;2.33;;;;;18.29;42.21;101853.97;5051238;28;45613;-85
2022/05/14 01:19:07;;;;;;;;;2.00;2.00;;;;;18.63;42.59;101911.38;5039759;28;45572;-85
2022/05/14 01:22:08;;;;;;;;;2.00;2.00;;;;;18.60;42.57;101912.41;5048916;28;45337;-85
2022/05/14 01:27:33;;;;;;;;;2.00;2.00;;;;;18.58;42.88;101916.19;5039232;28;45398;-85
2022/05/14 01:29:59;;;;;;;;;6.00;3.67;;;;;18.54;43.52;101910.06;5046516;28;45367;-85
2022/05/14 01:32:24;;;;;;;;;3.00;3.00;;;;;18.33;43.79;101883.38;5042572;28;45405;-85
2022/05/14 01:34:50;;;;;;;;;2.00;2.00;;;;;17.77;43.60;101786.78;5037855;28;47337;-85
2022/05/14 01:37:16;;;;;;;;;0.67;0.33;;;;;17.93;43.88;101814.66;5034191;28;45434;-85
2022/05/14 01:39:41;;;;;;;;;3.00;3.00;;;;;18.49;43.96;101912.16;5024880;28;46481;-85
2022/05/14 01:42:07;;;;;;;;;2.67;2.67;;;;;18.47;44.01;101906.00;5051411;28;45370;-85
2022/05/14 01:44:32;;;;;;;;;4.67;3.33;;;;;18.43;44.05;101904.44;5066325;28;45452;-85
2022/05/14 01:46:57;;;;;;;;;2.33;2.33;;;;;18.45;43.79;101905.19;5045724;28;46104;-85
2022/05/14 01:49:23;;;;;;;;;3.00;3.00;;;;;18.07;44.13;101854.31;5060654;28;45665;-85
2022/05/14 01:51:48;;;;;;;;;2.00;2.00;;;;;17.49;43.69;101758.72;5064075;28;45419;-86
2022/05/14 01:54:14;;;;;;;;;2.00;2.00;;;;;18.09;43.99;101863.19;5067691;28;45751;-86
2022/05/14 01:56:39;;;;;;;;;3.00;3.00;;;;;18.33;44.08;101894.19;5058568;28;45490;-85
2022/05/14 01:59:05;;;;;;;;;2.00;2.00;;;;;18.25;44.40;101896.44;5066567;28;45752;-85
2022/05/14 02:01:33;;;;;;;;;4.00;3.00;;;;;18.30;44.73;101905.13;5060410;27;45418;-85
2022/05/14 02:04:02;;;;;;;;;3.00;3.00;;;;;18.28;45.21;101898.94;5063233;28;45891;-85
2022/05/14 02:06:29;;;;;;;;;3.33;3.33;;;;;18.27;45.15;101896.38;5064103;28;45926;-86
2022/05/14 02:08:55;;;;;;;;;4.00;4.00;;;;;18.18;45.05;101900.44;5036620;28;45506;-85
2022/05/14 02:11:21;;;;;;;;;4.00;2.33;;;;;18.12;45.20;101884.59;5066052;28;45397;-85
2022/05/14 02:13:48;;;;;;;;;4.00;3.00;;;;;18.17;45.27;101896.03;5058234;28;46475;-85
2022/05/14 02:16:14;;;;;;;;;5.00;3.67;;;;;17.73;45.28;101823.84;5060563;28;45535;-85
2022/05/14 02:18:40;;;;;;;;;4.00;4.00;;;;;18.10;45.21;101889.25;5066319;28;45409;-85
2022/05/14 02:21:06;;;;;;;;;5.00;4.67;;;;;18.10;45.44;101903.59;5064647;28;45326;-85
2022/05/14 02:23:34;;;;;;;;;6.33;6.33;;;;;18.08;45.35;101892.00;5044424;28;45432;-86
2022/05/14 02:25:59;;;;;;;;;5.00;3.33;;;;;18.05;45.46;101888.59;5047721;28;45587;-85
2022/05/14 02:28:25;;;;;;;;;4.67;4.67;;;;;17.84;45.61;101863.72;5053253;28;48815;-86
2022/05/14 02:30:50;;;;;;;;;4.00;4.00;;;;;17.88;46.03;101876.94;5041720;28;45543;-85
2022/05/14 02:33:16;;;;;;;;;5.00;3.33;;;;;17.66;46.22;101847.59;5047993;28;48414;-85
2022/05/14 02:35:43;;;;;;;;;8.33;6.00;;;;;17.94;46.16;101891.94;5049879;28;45869;-86
2022/05/14 02:38:09;;;;;;;;;9.67;9.67;;;;;17.44;46.31;101818.28;5061878;28;45451;-87
2022/05/14 02:40:34;;;;;;;;;2.33;2.33;;;;;17.51;46.40;101833.16;5065412;28;45256;-87
2022/05/14 02:43:00;;;;;;;;;7.67;4.33;;;;;17.58;46.60;101860.63;5065327;28;46536;-88
2022/05/14 02:45:25;;;;;;;;;8.33;6.00;;;;;17.33;46.63;101818.00;5059645;28;45284;-87
2022/05/14 02:47:51;;;;;;;;;6.00;6.00;;;;;17.44;46.14;101838.94;5067569;28;45424;-88
2022/05/14 02:50:17;;;;;;;;;4.33;4.33;;;;;17.45;46.84;101854.19;5043075;28;45433;-88
2022/05/14 02:52:42;;;;;;;;;5.67;3.00;;;;;17.76;46.59;101907.28;5052795;28;45464;-87
2022/05/14 02:55:09;;;;;;;;;5.33;5.00;;;;;17.51;46.89;101862.81;5041451;28;45384;-87
2022/05/14 02:57:35;;;;;;;;;5.00;4.33;;;;;17.59;46.77;101883.06;5056142;28;45529;-87
2022/05/14 03:00:01;;;;;;;;;5.33;4.67;;;;;17.46;46.72;101862.16;5050037;28;45516;-87
2022/05/14 03:02:27;;;;;;;;;5.00;4.00;;;;;17.71;46.74;101901.28;5043282;28;47591;-87
2022/05/14 03:04:52;;;;;;;;;6.00;5.33;;;;;17.15;46.66;101810.91;5032456;28;45499;-87
2022/05/14 03:07:18;;;;;;;;;4.33;4.33;;;;;17.49;46.51;101872.81;5040984;28;45513;-87
2022/05/14 03:09:43;;;;;;;;;4.33;4.33;;;;;17.30;47.17;101828.91;5046781;28;45460;-87
2022/05/14 03:12:12;;;;;;;;;5.67;4.00;;;;;17.71;46.72;101896.75;5047143;28;46216;-87
2022/05/14 03:14:38;;;;;;;;;4.67;4.00;;;;;17.30;47.04;101837.00;5063870;28;45428;-87
2022/05/14 03:17:04;;;;;;;;;6.33;6.33;;;;;17.42;46.75;101857.91;5072432;28;45379;-87
2022/05/14 03:19:30;;;;;;;;;5.33;5.33;;;;;17.28;46.93;101831.72;5063166;28;45504;-87
2022/05/14 03:21:56;;;;;;;;;4.00;3.00;;;;;17.50;47.06;101866.44;5061156;28;45419;-87
2022/05/14 03:24:23;;;;;;;;;5.33;4.00;;;;;17.63;46.83;101895.41;5067443;28;45547;-87
2022/05/14 03:26:49;;;;;;;;;3.33;3.33;;;;;17.32;47.04;101845.88;5059755;27;45509;-87
2022/05/14 03:29:14;;;;;;;;;3.00;3.00;;;;;17.64;47.23;101903.44;5036706;28;45466;-87
2022/05/14 03:31:41;;;;;;;;;6.00;4.00;;;;;17.63;47.24;101906.19;5062986;28;46445;-87
2022/05/14 03:34:07;;;;;;;;;4.00;4.00;;;;;17.49;46.98;101882.72;5065117;28;45364;-87
2022/05/14 03:36:33;;;;;;;;;4.00;4.00;;;;;17.63;46.73;101916.97;5062751;28;45509;-87
2022/05/14 03:38:59;;;;;;;;;2.67;2.33;;;;;17.41;46.86;101875.03;5043831;28;45698;-88
2022/05/14 03:41:24;;;;;;;;;5.33;4.00;;;;;17.25;46.89;101848.03;5047231;28;48231;-87
2022/05/14 03:43:49;;;;;;;;;3.33;3.33;;;;;17.38;47.09;101867.13;5063716;28;45485;-87
2022/05/14 03:46:15;;;;;;;;;4.00;4.00;;;;;17.19;47.28;101839.44;5065549;28;45714;-87
2022/05/14 03:48:41;;;;;;;;;6.00;4.00;;;;;17.55;47.00;101903.06;5068265;28;45818;-88
2022/05/14 03:51:07;;;;;;;;;5.00;4.00;;;;;17.49;46.70;101893.50;5058426;27;46111;-87
2022/05/14 03:53:33;;;;;;;;;4.67;4.33;;;;;17.24;47.09;101853.53;5047031;28;45579;-87
2022/05/14 03:55:58;;;;;;;;;4.00;2.33;;;;;17.49;46.92;101905.16;5065668;28;45704;-87
2022/05/14 03:58:24;;;;;;;;;4.67;3.00;;;;;17.25;47.01;101858.81;5040838;28;45497;-88
2022/05/14 04:00:50;;;;;;;;;2.33;2.33;;;;;17.47;46.88;101898.97;5069757;28;45493;-87
2022/05/14 04:03:15;;;;;;;;;3.33;3.33;;;;;17.26;46.71;101863.25;5062892;28;45587;-87
2022/05/14 04:05:41;;;;;;;;;3.00;2.00;;;;;17.14;46.91;101836.09;5064665;28;45311;-87
2022/05/14 04:08:06;;;;;;;;;3.67;3.00;;;;;17.23;46.78;101859.84;5063421;28;45417;-86
2022/05/14 04:10:32;;;;;;;;;4.33;4.33;;;;;16.92;47.15;101801.38;5055751;28;46130;-88
2022/05/14 04:12:59;;;;;;;;;4.00;3.00;;;;;17.49;46.96;101899.75;5042560;28;45530;-87
2022/05/14 04:15:25;;;;;;;;;5.33;3.33;;;;;17.04;46.91;101824.94;5060126;28;45300;-87
2022/05/14 04:17:51;;;;;;;;;4.00;3.00;;;;;17.45;46.92;101903.56;5066594;28;45321;-88
2022/05/14 04:20:17;;;;;;;;;4.00;2.67;;;;;17.43;46.88;101904.59;5065480;28;45439;-88
2022/05/14 04:22:43;;;;;;;;;7.00;4.00;;;;;17.29;47.26;101884.66;5047142;28;46085;-87
2022/05/14 04:25:11;;;;;;;;;4.00;4.00;;;;;17.40;47.03;101902.94;5062499;27;45431;-88
2022/05/14 04:27:36;;;;;;;;;4.67;4.67;;;;;17.20;47.32;101870.81;5066500;28;45738;-88
2022/05/14 04:30:02;;;;;;;;;3.00;3.00;;;;;17.00;47.06;101845.81;5059232;28;46056;-88
2022/05/14 04:32:28;;;;;;;;;4.00;4.00;;;;;17.04;47.47;101866.25;5062904;28;46091;-88
2022/05/14 04:34:53;;;;;;;;;3.00;3.00;;;;;16.84;47.79;101837.66;5047661;28;45423;-88
2022/05/14 04:37:19;;;;;;;;;3.67;3.67;;;;;16.46;47.84;101775.03;5074960;28;45347;-88
2022/05/14 04:39:44;;;;;;;;;2.00;2.00;;;;;16.82;47.81;101833.31;5067450;28;45353;-88
2022/05/14 04:42:10;;;;;;;;;5.67;3.00;;;;;17.29;47.93;101914.28;5044090;28;45474;-88
2022/05/14 04:44:37;;;;;;;;;4.00;3.00;;;;;17.12;47.90;101868.53;5068384;28;45405;-88
2022/05/14 04:47:03;;;;;;;;;4.67;4.67;;;;;17.00;48.10;101863.78;5070086;28;45389;-88
2022/05/14 04:49:28;;;;;;;;;5.00;3.67;;;;;17.26;47.95;101905.50;5060824;28;45449;-88
2022/05/14 04:51:54;;;;;;;;;4.67;4.67;;;;;17.01;48.42;101869.09;5053748;28;45435;-88
2022/05/14 04:54:20;;;;;;;;;5.33;4.00;;;;;17.25;48.23;101904.63;5059855;28;45392;-88
2022/05/14 04:56:46;;;;;;;;;5.00;5.00;;;;;17.31;48.30;101925.00;5058332;28;45692;-88
2022/05/14 04:59:12;;;;;;;;;7.33;4.33;;;;;17.22;48.03;101901.22;5066776;27;45452;-88
2022/05/14 05:01:37;;;;;;;;;4.33;4.33;;;;;17.33;48.30;101917.72;5044121;28;45679;-87
2022/05/14 05:04:03;;;;;;;;;4.67;4.00;;;;;17.25;48.53;101898.38;5064970;28;45449;-87
2022/05/14 05:06:28;;;;;;;;;9.33;8.33;;;;;17.30;49.14;101907.06;5060719;28;45372;-88
2022/05/14 05:08:54;;;;;;;;;6.00;5.00;;;;;17.38;48.62;101909.38;5063033;28;45323;-87
2022/05/14 05:11:21;;;;;;;;;9.67;6.33;;;;;17.30;48.69;101894.50;5046034;28;46129;-88
2022/05/14 05:13:46;;;;;;;;;8.00;6.67;;;;;17.41;48.91;101911.91;5060638;28;45449;-88
2022/05/14 05:16:12;;;;;;;;;4.00;3.00;;;;;17.18;48.70;101867.31;5053462;28;45501;-88
2022/05/14 05:18:38;;;;;;;;;5.00;5.00;;;;;17.36;49.30;101900.50;5066136;28;45448;-88
2022/05/14 05:21:04;;;;;;;;;5.00;5.00;;;;;17.07;49.29;101851.75;5059489;28;45429;-87
2022/05/14 05:23:29;;;;;;;;;7.33;5.00;;;;;17.43;48.98;101923.47;5042011;28;45423;-85
2022/05/14 05:25:56;;;;;;;;;5.00;5.00;;;;;17.47;48.96;101925.06;5063529;28;45362;-86
2022/05/14 05:28:23;;;;;;;;;5.00;5.00;;;;;17.25;49.11;101888.44;5063628;28;45516;-86
2022/05/14 05:30:49;;;;;;;;;4.00;4.00;;;;;17.45;48.98;101913.47;5042671;28;45449;-86
2022/05/14 05:33:21;;;;;;;;;5.00;5.00;;;;;17.52;49.04;101921.16;5054606;28;45482;-86
2022/05/14 05:35:47;;;;;;;;;7.00;6.00;;;;;17.57;48.82;101918.19;5048856;28;45369;-86
2022/05/14 05:38:13;;;;;;;;;5.33;5.00;;;;;17.60;48.88;101923.41;5065344;28;46126;-86
2022/05/14 05:40:39;;;;;;;;;6.33;6.33;;;;;17.58;47.81;101910.97;5063329;28;45294;-86
2022/05/14 05:43:06;;;;;;;;;5.00;5.00;;;;;17.62;47.89;101918.81;5058240;28;45395;-86
2022/05/14 05:45:32;;;;;;;;;6.00;4.67;;;;;17.68;47.57;101923.88;5043365;28;45443;-88
2022/05/14 05:47:58;;;;;;;;;5.33;4.33;;;;;17.64;47.90;101913.34;5047009;28;46767;-86
2022/05/14 05:50:24;;;;;;;;;21.67;20.67;;;;;17.71;46.75;101922.84;5056585;28;45466;-86
2022/05/14 05:52:51;;;;;;;;;5.67;5.67;;;;;17.81;46.25;101928.63;5041203;28;45347;-86
2022/05/14 05:58:00;;;;;;;;;6.00;4.67;;;;;17.46;45.44;101870.25;5065611;28;45318;-86
2022/05/14 06:00:28;;;;;;;;;3.33;3.33;;;;;17.90;44.88;101937.06;5058411;28;45295;-86
2022/05/14 06:02:54;;;;;;;;;2.00;2.00;;;;;17.96;44.65;101937.69;5045809;28;45333;-86
2022/05/14 06:05:20;;;;;;;;;5.67;5.67;;;;;17.76;44.89;101896.47;5046829;28;45626;-86
2022/05/14 06:07:45;;;;;;;;;3.67;3.67;;;;;17.53;44.55;101854.63;5046824;28;48115;-86
2022/05/14 06:10:14;;;;;;;;;6.00;4.33;;;;;18.12;44.85;101938.56;5043560;27;45880;-86
2022/05/14 06:12:39;;;;;;;;;9.33;5.00;;;;;17.90;44.27;101896.63;5058487;28;45650;-86
2022/05/14 06:15:10;;;;;;;;;41.75;31.00;;;;;17.98;44.19;101898.91;5058419;28;45441;-86
2022/05/14 06:17:35;;;;;;;;;8.67;6.67;;;;;18.10;43.66;101908.13;5060032;28;46648;-86
2022/05/14 06:20:02;;;;;;;;;17.67;15.33;;;;;18.37;43.13;101939.88;5057623;28;45692;-86
2022/05/14 06:22:28;;;;;;;;;54.00;42.25;;;;;17.92;43.43;101856.94;5043885;28;45473;-86
2022/05/14 06:24:53;;;;;;;;;27.67;22.33;;;;;17.78;43.21;101832.56;5062331;27;45496;-86
2022/05/14 06:27:19;;;;;;;;;52.00;40.00;;;;;18.30;42.94;101909.66;5065164;28;45575;-86
2022/05/14 06:29:46;;;;;;;;;30.00;27.33;;;;;18.58;42.71;101949.44;5053107;28;45588;-86
2022/05/14 06:32:11;;;;;;;;;56.25;43.50;;;;;18.64;42.84;101956.34;5047805;28;45567;-86
2022/05/14 06:34:36;;;;;;;;;58.75;48.50;;;;;18.69;42.81;101951.53;5055734;28;45537;-86
2022/05/14 06:37:02;;;;;;;;;66.50;49.50;;;;;18.51;42.83;101916.53;5056086;28;55363;-86
2022/05/14 06:39:27;;;;;;;;;49.50;38.50;;;;;18.52;42.64;101910.19;5068541;28;46591;-86
2022/05/14 06:41:53;;;;;;;;;7.33;7.33;;;;;18.34;42.07;101871.63;5060316;28;45678;-86
2022/05/14 06:44:18;;;;;;;;;4.33;4.00;;;;;18.64;41.79;101899.63;5046766;28;45692;-86
2022/05/14 06:46:44;;;;;;;;;5.67;4.67;;;;;18.91;41.78;101943.91;5062762;28;45520;-86
2022/05/14 06:49:09;;;;;;;;;3.33;3.00;;;;;18.89;42.04;101934.16;5065268;28;45320;-86
2022/05/14 06:51:35;;;;;;;;;2.33;2.33;;;;;18.58;42.03;101870.25;5061161;27;45346;-86
2022/05/14 06:54:08;;;;;;;;;3.67;2.33;;;;;18.62;41.61;101888.03;5063899;28;45471;-86
2022/05/14 06:56:36;;;;;;;;;2.67;2.67;;;;;19.02;41.50;101942.41;5044019;28;47093;-86
2022/05/14 06:59:01;;;;;;;;;2.00;2.00;;;;;18.75;41.71;101899.81;5056754;27;45870;-86
2022/05/14 07:01:28;;;;;;;;;2.67;2.67;;;;;19.01;41.75;101955.06;5052814;28;45591;-86
2022/05/14 07:06:49;;;;;;;;;1.67;1.67;;;;;19.07;41.80;101951.09;5069479;28;45444;-86
2022/05/14 07:09:24;;;;;;;;;12.67;9.33;;;;;19.16;42.11;101959.53;5064144;28;45587;-86
2022/05/14 07:11:53;;;;;;;;;40.33;32.33;;;;;19.20;41.65;101941.31;5044571;28;45393;-87
2022/05/14 07:14:19;;;;;;;;;20.33;19.67;;;;;19.36;40.91;101946.63;5049474;28;45597;-87
2022/05/14 07:16:48;;;;;;;;;2.00;2.00;;;;;19.40;40.87;101950.88;5040608;28;47877;-86
2022/05/14 07:19:13;;;;;;;;;3.33;2.00;;;;;19.12;40.80;101885.00;5056947;28;45450;-86
2022/05/14 07:21:42;;;;;;;;;1.00;0.67;;;;;19.48;40.43;101939.56;5037802;28;45573;-86
2022/05/14 07:24:12;;;;;;;;;2.00;2.00;;;;;19.43;40.48;101920.06;5048603;28;45274;-87
2022/05/14 07:26:39;;;;;;;;;2.00;2.00;;;;;18.96;40.45;101839.16;5055183;28;48644;-87
2022/05/14 07:29:07;;;;;;;;;1.00;1.00;;;;;19.71;40.30;101936.34;5058703;28;45789;-85
2022/05/14 07:31:34;;;;;;;;;2.67;1.67;;;;;19.80;39.71;101937.59;5043187;28;45438;-87
2022/05/14 07:33:59;;;;;;;;;1.67;1.33;;;;;19.85;39.74;101932.75;5062836;28;45730;-88
2022/05/14 07:36:25;;;;;;;;;2.00;2.00;;;;;19.86;39.80;101923.69;5061888;28;45988;-88
2022/05/14 07:38:54;;;;;;;;;3.67;2.00;;;;;19.92;39.69;101925.97;5067132;28;45465;-87
2022/05/14 07:41:20;;;;;;;;;4.00;3.00;;;;;19.81;40.17;101901.47;5054359;28;45504;-86
2022/05/14 07:43:49;;;;;;;;;3.00;1.67;;;;;19.79;39.87;101879.06;5059467;28;45593;-86
2022/05/14 07:46:26;;;;;;;;;6.00;3.00;;;;;20.06;39.43;101899.88;5042728;28;47308;-86
2022/05/14 07:48:53;;;;;;;;;4.00;4.00;;;;;20.04;39.70;101878.31;5047618;28;45415;-86
2022/05/14 07:51:18;;;;;;;;;2.00;2.00;;;;;20.16;39.28;101885.63;5045625;28;45566;-86
2022/05/14 07:53:44;;;;;;;;;7.00;3.00;;;;;20.41;39.55;101909.22;5066808;28;45647;-85
2022/05/14 07:56:10;;;;;;;;;4.67;3.67;;;;;20.43;39.32;101901.88;5065867;28;46195;-85
2022/05/14 07:58:37;;;;;;;;;4.33;3.00;;;;;20.68;38.82;101923.78;5058517;28;45405;-87
2022/05/14 08:01:04;;;;;;;;;5.67;4.00;;;;;20.72;39.09;101909.94;5063190;28;45350;-86
2022/05/14 08:03:29;;;;;;;;;3.00;2.00;;;;;20.62;38.05;101871.72;5042337;28;45516;-87
2022/05/14 08:05:58;;;;;;;;;2.00;2.00;;;;;20.76;38.50;101881.63;5061152;28;46695;-88
2022/05/14 08:08:25;;;;;;;;;3.00;3.00;;;;;21.00;38.34;101917.03;5060626;28;45602;-86
2022/05/14 08:10:51;;;;;;;;;2.67;2.00;;;;;21.01;37.78;101909.78;5065652;28;45631;-89
2022/05/14 08:13:19;;;;;;;;;4.00;4.00;;;;;20.97;37.37;101886.56;5043853;28;45654;-87
2022/05/14 08:15:46;;;;;;;;;2.00;2.00;;;;;21.10;37.92;101913.69;5067440;28;45381;-86
2022/05/14 08:18:13;;;;;;;;;2.00;2.00;;;;;21.23;37.65;101917.25;5064736;28;45476;-88
2022/05/14 08:20:39;;;;;;;;;1.00;1.00;;;;;21.33;37.12;101920.19;5063184;28;45562;-87
2022/05/14 08:25:52;;;;;;;;;1.33;1.33;;;;;21.56;37.32;101924.03;5057715;28;45364;-87
2022/05/14 08:28:18;;;;;;;;;2.33;2.33;;;;;21.43;36.71;101875.22;5044840;28;45751;-87
2022/05/14 08:30:44;;;;;;;;;3.00;3.00;;;;;21.79;36.97;101909.66;5060691;28;45185;-87
2022/05/14 08:33:11;;;;;;;;;4.67;3.33;;;;;21.38;36.27;101821.25;5044517;28;45428;-87
2022/05/14 08:35:37;;;;;;;;;2.00;2.00;;;;;21.98;36.19;101886.59;5047467;28;48076;-88
2022/05/14 08:38:04;;;;;;;;;4.00;3.00;;;;;22.35;36.28;101911.94;5041441;28;45658;-87
2022/05/14 08:40:34;;;;;;;;;2.00;2.00;;;;;21.81;36.01;101766.56;5059994;28;45389;-87
2022/05/14 08:43:03;;;;;;;;;2.33;2.33;;;;;22.79;34.62;101860.63;5062792;28;45658;-88
2022/05/14 08:45:34;;;;;;;;;7.00;7.00;;;;;23.33;33.84;101860.00;5046999;28;46226;-87
2022/05/14 08:48:37;;;;;;;;;5.00;5.00;;;;;24.23;33.89;101900.75;5046529;28;45471;-87
2022/05/14 08:51:11;;;;;;;;;2.00;2.00;;;;;24.71;32.46;101845.00;5034440;28;45429;-87
2022/05/14 08:53:39;;;;;;;;;1.67;1.67;;;;;25.65;31.71;101870.38;5063836;28;45611;-87
2022/05/14 08:56:23;;;;;;;;;1.00;1.00;;;;;26.61;29.94;101887.16;5067856;28;45779;-87
2022/05/14 08:59:21;;;;;;;;;1.67;1.00;;;;;27.40;30.21;101884.19;5060389;28;45926;-84
2022/05/14 09:01:48;;;;;;;;;1.33;1.33;;;;;27.72;28.65;101856.38;5058893;28;45476;-84
2022/05/14 09:04:17;;;;;;;;;2.33;1.00;;;;;28.08;28.08;101826.31;5062536;28;45513;-84
2022/05/14 09:06:44;;;;;;;;;1.00;1.00;;;;;29.00;26.73;101885.44;5044384;28;47999;-84
2022/05/14 09:09:21;;;;;;;;;1.00;1.00;;;;;29.35;26.18;101891.03;5040214;28;45532;-83
2022/05/14 09:12:04;;;;;;;;;1.33;1.33;;;;;29.74;26.61;101869.44;5047829;28;45357;-84
2022/05/14 09:14:37;;;;;;;;;6.00;4.00;;;;;29.97;25.97;101853.22;5055022;28;45766;-83
2022/05/14 09:17:21;;;;;;;;;1.00;1.00;;;;;30.40;25.32;101876.00;5035096;28;46518;-85
2022/05/14 09:19:49;;;;;;;;;4.00;3.00;;;;;30.16;25.03;101785.19;5038991;28;45556;-84
2022/05/14 09:22:47;;;;;;;;;1.33;1.33;;;;;30.60;24.71;101827.00;5063216;28;45374;-84
2022/05/14 09:25:28;;;;;;;;;2.00;2.00;;;;;30.98;24.16;101805.31;5039248;28;45453;-84
2022/05/14 09:28:04;;;;;;;;;4.00;2.00;;;;;31.82;23.69;101858.06;5059248;28;46146;-84
2022/05/14 09:30:43;;;;;;;;;1.00;1.00;;;;;32.20;23.19;101832.53;5053891;28;45415;-84
2022/05/14 09:33:25;;;;;;;;;1.00;1.00;;;;;32.43;22.00;101793.88;5046007;28;45562;-84
2022/05/14 09:35:58;;;;;;;;;3.33;1.00;;;;;33.18;22.41;101843.59;5040028;28;45532;-83
2022/05/14 09:38:25;;;;;;;;;2.00;2.00;;;;;33.73;21.24;101838.63;5045135;28;46617;-84
2022/05/14 09:40:54;;;;;;;;;1.00;1.00;;;;;33.93;19.82;101794.63;5055757;28;45963;-86
2022/05/14 09:43:19;;;;;;;;;0.33;0.33;;;;;34.80;19.71;101853.63;5054543;28;45478;-85
2022/05/14 09:46:06;;;;;;;;;2.00;1.00;;;;;35.30;19.59;101830.34;5042846;28;45613;-84
2022/05/14 09:48:33;;;;;;;;;0.33;0.33;;;;;35.87;18.98;101844.94;5050017;28;47928;-85
2022/05/14 09:51:03;;;;;;;;;2.00;2.00;;;;;36.24;17.91;101837.13;5046889;28;45572;-84
2022/05/14 09:53:31;;;;;;;;;1.00;1.00;;;;;36.26;17.30;101825.84;5056578;28;45457;-84
2022/05/14 09:56:06;;;;;;;;;0.00;0.00;;;;;36.44;18.02;101833.56;5061013;28;45341;-84
2022/05/14 09:58:49;;;;;;;;;1.33;1.33;;;;;36.94;17.39;101834.81;5057873;28;46369;-85
2022/05/14 10:01:26;;;;;;;;;0.67;0.67;;;;;37.63;16.99;101792.75;5043105;28;45455;-85
2022/05/14 10:04:23;;;;;;;;;1.00;1.00;;;;;38.57;16.45;101825.38;5059044;28;45453;-85
2022/05/14 10:06:56;;;;;;;;;0.67;0.00;;;;;39.52;15.24;101803.81;5057282;28;45433;-84
2022/05/14 10:09:46;;;;;;;;;0.00;0.00;;;;;40.19;14.09;101818.56;5042624;28;47865;-85
2022/05/14 10:12:56;;;;;;;;;1.00;0.00;;;;;40.59;14.38;101829.13;5040795;28;45537;-85
2022/05/14 10:15:45;;;;;;;;;0.00;0.00;;;;;40.54;13.01;101834.59;4980462;28;45444;-85
2022/05/14 10:18:36;;;;;;;;;0.00;0.00;;;;;40.76;13.54;101828.44;4988760;28;45482;-85
2022/05/14 10:21:19;;;;;;;;;0.00;0.00;;;;;41.85;12.84;101825.00;4984588;28;46412;-85
2022/05/14 10:27:05;;;;;;;;;1.00;1.00;;;;;44.90;11.12;101820.09;4981581;28;45495;-85
2022/05/14 10:29:45;;;;;;;;;0.00;0.00;;;;;45.57;10.50;101821.28;4978266;28;46070;-85
2022/05/14 10:32:17;;;;;;;;;1.33;0.33;;;;;46.17;10.36;101816.09;4984569;28;46471;-85
2022/05/14 10:35:00;;;;;;;;;0.67;0.67;;;;;46.83;10.43;101817.22;4976451;28;45514;-85
2022/05/14 10:37:33;;;;;;;;;3.00;3.00;;;;;46.41;10.19;101764.78;4982551;28;45476;-85
2022/05/14 10:40:37;;;;;;;;;2.00;2.00;;;;;46.48;10.44;101814.16;4982081;28;45658;-87
2022/05/14 10:43:40;;;;;;;;;1.00;1.00;;;;;45.89;10.33;101815.50;4970214;28;45823;-89
2022/05/14 10:46:18;;;;;;;;;1.00;1.00;;;;;45.40;10.25;101810.25;4960867;28;45620;-84
2022/05/14 10:49:09;;;;;;;;;1.67;0.33;;;;;45.35;10.29;101807.41;4991733;28;45394;-84
2022/05/14 10:51:43;;;;;;;;;2.00;0.67;;;;;45.42;9.93;101805.16;5041721;28;45250;-84
2022/05/14 10:54:17;;;;;;;;;3.33;2.33;;;;;45.52;10.17;101767.75;5042811;28;46595;-87
2022/05/14 10:56:56;;;;;;;;;1.00;1.00;;;;;45.39;10.17;101794.47;5041366;28;45683;-84
2022/05/14 10:59:40;;;;;;;;;1.67;0.33;;;;;45.07;10.58;101732.66;5041928;28;45370;-90
2022/05/14 11:02:22;;;;;;;;;0.00;0.00;;;;;45.07;10.85;101735.47;5040193;28;45547;-91
2022/05/14 11:04:50;;;;;;;;;1.67;1.67;;;;;44.85;10.42;101798.41;5040025;28;46275;-85
2022/05/14 11:07:29;;;;;;;;;0.67;0.67;;;;;42.72;11.63;101746.06;5044179;28;45597;-88
2022/05/14 11:10:12;;;;;;;;;1.00;1.00;;;;;40.60;12.78;101704.16;5042599;28;45469;-86
2022/05/14 11:12:39;;;;;;;;;0.33;0.33;;;;;38.51;13.98;101645.16;5041109;28;45486;-87
2022/05/14 11:15:23;;;;;;;;;0.00;0.00;;;;;37.50;14.92;101722.16;5038792;28;45350;-88
2022/05/14 11:17:58;;;;;;;;;1.67;1.33;;;;;37.06;15.52;101760.00;5036504;28;45487;-87
2022/05/14 11:20:24;;;;;;;;;1.00;1.00;;;;;36.22;16.55;101707.94;5039198;28;45507;-87
2022/05/14 11:23:04;;;;;;;;;3.00;2.00;;;;;35.91;16.61;101718.56;5040302;28;45523;-87
2022/05/14 11:25:30;;;;;;;;;3.67;1.67;;;;;35.08;16.56;101663.25;5041482;28;46188;-86
2022/05/14 11:28:16;;;;;;;;;3.00;3.00;;;;;35.52;17.50;101772.00;5043599;28;45557;-88
2022/05/14 11:30:51;;;;;;;;;3.00;2.67;;;;;34.49;17.82;101655.47;5059265;28;45405;-85
2022/05/14 11:33:26;;;;;;;;;2.00;0.33;;;;;35.03;17.67;101764.72;5042738;28;45291;-86
2022/05/14 11:35:55;;;;;;;;;0.67;0.67;;;;;34.12;17.76;101648.41;5047991;28;45442;-87
2022/05/14 11:38:23;;;;;;;;;39.67;33.00;;;;;34.71;17.64;101764.28;5051836;28;45334;-87
2022/05/14 11:41:01;;;;;;;;;7.33;5.67;;;;;34.55;17.78;101757.09;5058209;28;45496;-87
2022/05/14 11:43:30;;;;;;;;;3.67;2.00;;;;;34.37;17.90;101763.16;5041797;28;45368;-85
2022/05/14 11:46:26;;;;;;;;;5.00;3.33;;;;;34.15;18.12;101765.06;5057118;28;47283;-84
2022/05/14 11:49:31;;;;;;;;;8.00;6.33;;;;;33.81;19.03;101746.38;5037052;28;45412;-84
2022/05/14 11:52:27;;;;;;;;;9.67;9.67;;;;;33.68;18.54;101744.34;4985820;28;45560;-84